sensor_id;sensor_type;location;lat;lon;timestamp;temperature;humidity
68385;DHT22;55336;43.062;25.626;2023-07-09T00:02:12;18.50;99.90
68385;DHT22;55336;43.062;25.626;2023-07-09T00:04:38;18.40;99.90
68385;DHT22;55336;43.062;25.626;2023-07-09T00:07:04;18.50;99.90
68385;DHT22;55336;43.062;25.626;2023-07-09T00:09:30;18.50;99.90
68385;DHT22;55336;43.062;25.626;2023-07-09T00:11:57;18.50;99.90
68385;DHT22;55336;43.062;25.626;2023-07-09T00:14:23;18.40;99.90
68385;DHT22;55336;43.062;25.626;2023-07-09T00:16:49;18.40;99.90
68385;DHT22;55336;43.062;25.626;2023-07-09T00:19:20;18.50;99.90
68385;DHT22;55336;43.062;25.626;2023-07-09T00:21:48;18.50;99.90
68385;DHT22;55336;43.062;25.626;2023-07-09T00:24:15;18.50;99.90
68385;DHT22;55336;43.062;25.626;2023-07-09T00:26:40;18.50;99.90
68385;DHT22;55336;43.062;25.626;2023-07-09T00:29:10;18.50;99.90
68385;DHT22;55336;43.062;25.626;2023-07-09T00:31:37;18.40;99.90
68385;DHT22;55336;43.062;25.626;2023-07-09T00:34:14;18.40;99.90
68385;DHT22;55336;43.062;25.626;2023-07-09T00:36:42;18.40;99.90
68385;DHT22;55336;43.062;25.626;2023-07-09T00:39:20;18.40;99.90
68385;DHT22;55336;43.062;25.626;2023-07-09T00:41:47;18.30;99.90
68385;DHT22;55336;43.062;25.626;2023-07-09T00:44:32;18.20;99.90
68385;DHT22;55336;43.062;25.626;2023-07-09T00:49:33;18.20;99.90
68385;DHT22;55336;43.062;25.626;2023-07-09T00:52:03;18.10;99.90
68385;DHT22;55336;43.062;25.626;2023-07-09T00:54:36;18.10;99.90
68385;DHT22;55336;43.062;25.626;2023-07-09T00:57:10;18.10;99.90
68385;DHT22;55336;43.062;25.626;2023-07-09T00:59:38;18.00;99.90
68385;DHT22;55336;43.062;25.626;2023-07-09T01:02:06;18.00;99.90
68385;DHT22;55336;43.062;25.626;2023-07-09T01:04:33;18.00;99.90
68385;DHT22;55336;43.062;25.626;2023-07-09T01:06:58;18.00;99.90
68385;DHT22;55336;43.062;25.626;2023-07-09T01:09:25;17.90;99.90
68385;DHT22;55336;43.062;25.626;2023-07-09T01:11:51;17.90;99.90
68385;DHT22;55336;43.062;25.626;2023-07-09T01:14:20;17.90;99.90
68385;DHT22;55336;43.062;25.626;2023-07-09T01:16:50;17.90;99.90
68385;DHT22;55336;43.062;25.626;2023-07-09T01:19:27;17.90;99.90
68385;DHT22;55336;43.062;25.626;2023-07-09T01:21:58;17.90;99.90
68385;DHT22;55336;43.062;25.626;2023-07-09T01:24:48;17.90;99.90
68385;DHT22;55336;43.062;25.626;2023-07-09T01:27:14;17.90;99.90
68385;DHT22;55336;43.062;25.626;2023-07-09T01:29:41;17.90;99.90
68385;DHT22;55336;43.062;25.626;2023-07-09T01:32:08;17.90;99.90
68385;DHT22;55336;43.062;25.626;2023-07-09T01:34:35;17.90;99.90
68385;DHT22;55336;43.062;25.626;2023-07-09T01:37:01;17.90;99.90
68385;DHT22;55336;43.062;25.626;2023-07-09T01:39:27;17.90;99.90
68385;DHT22;55336;43.062;25.626;2023-07-09T01:41:56;17.90;99.90
68385;DHT22;55336;43.062;25.626;2023-07-09T01:44:22;17.80;99.90
68385;DHT22;55336;43.062;25.626;2023-07-09T01:46:49;17.80;99.90
68385;DHT22;55336;43.062;25.626;2023-07-09T01:49:14;17.80;99.90
68385;DHT22;55336;43.062;25.626;2023-07-09T01:51:42;17.80;99.90
68385;DHT22;55336;43.062;25.626;2023-07-09T01:54:08;17.60;99.90
68385;DHT22;55336;43.062;25.626;2023-07-09T01:56:34;17.60;99.90
68385;DHT22;55336;43.062;25.626;2023-07-09T01:58:59;17.60;99.90
68385;DHT22;55336;43.062;25.626;2023-07-09T02:01:30;17.50;99.90
68385;DHT22;55336;43.062;25.626;2023-07-09T02:03:59;17.50;99.90
68385;DHT22;55336;43.062;25.626;2023-07-09T02:06:24;17.50;99.90
68385;DHT22;55336;43.062;25.626;2023-07-09T02:08:50;17.40;99.90
68385;DHT22;55336;43.062;25.626;2023-07-09T02:11:16;17.40;99.90
68385;DHT22;55336;43.062;25.626;2023-07-09T02:13:42;17.40;99.90
68385;DHT22;55336;43.062;25.626;2023-07-09T02:16:07;17.30;99.90
68385;DHT22;55336;43.062;25.626;2023-07-09T02:18:34;17.30;99.90
68385;DHT22;55336;43.062;25.626;2023-07-09T02:21:00;17.20;99.90
68385;DHT22;55336;43.062;25.626;2023-07-09T02:23:26;17.20;99.90
68385;DHT22;55336;43.062;25.626;2023-07-09T02:25:52;17.10;99.90
68385;DHT22;55336;43.062;25.626;2023-07-09T02:28:19;17.00;99.90
68385;DHT22;55336;43.062;25.626;2023-07-09T02:30:45;17.00;99.90
68385;DHT22;55336;43.062;25.626;2023-07-09T02:33:12;17.00;99.90
68385;DHT22;55336;43.062;25.626;2023-07-09T02:35:38;17.00;99.90
68385;DHT22;55336;43.062;25.626;2023-07-09T02:38:03;16.90;99.90
68385;DHT22;55336;43.062;25.626;2023-07-09T02:40:29;17.00;99.90
68385;DHT22;55336;43.062;25.626;2023-07-09T02:42:55;16.90;99.90
68385;DHT22;55336;43.062;25.626;2023-07-09T02:45:21;16.90;99.90
68385;DHT22;55336;43.062;25.626;2023-07-09T02:47:47;16.80;99.90
68385;DHT22;55336;43.062;25.626;2023-07-09T02:50:12;16.80;99.90
68385;DHT22;55336;43.062;25.626;2023-07-09T02:52:39;16.80;99.90
68385;DHT22;55336;43.062;25.626;2023-07-09T02:55:05;16.80;99.90
68385;DHT22;55336;43.062;25.626;2023-07-09T02:57:31;16.90;99.90
68385;DHT22;55336;43.062;25.626;2023-07-09T02:59:57;16.90;99.90
68385;DHT22;55336;43.062;25.626;2023-07-09T03:02:23;16.80;99.90
68385;DHT22;55336;43.062;25.626;2023-07-09T03:04:48;16.80;99.90
68385;DHT22;55336;43.062;25.626;2023-07-09T03:07:14;16.80;99.90
68385;DHT22;55336;43.062;25.626;2023-07-09T03:09:40;16.80;99.90
68385;DHT22;55336;43.062;25.626;2023-07-09T03:12:06;16.80;99.90
68385;DHT22;55336;43.062;25.626;2023-07-09T03:14:32;16.80;99.90
68385;DHT22;55336;43.062;25.626;2023-07-09T03:16:58;16.80;99.90
68385;DHT22;55336;43.062;25.626;2023-07-09T03:19:24;16.80;99.90
68385;DHT22;55336;43.062;25.626;2023-07-09T03:21:50;16.90;99.90
68385;DHT22;55336;43.062;25.626;2023-07-09T03:24:15;16.90;99.90
68385;DHT22;55336;43.062;25.626;2023-07-09T03:26:45;16.90;99.90
68385;DHT22;55336;43.062;25.626;2023-07-09T03:29:11;16.90;99.90
68385;DHT22;55336;43.062;25.626;2023-07-09T03:31:37;17.00;99.90
68385;DHT22;55336;43.062;25.626;2023-07-09T03:34:03;17.00;99.90
68385;DHT22;55336;43.062;25.626;2023-07-09T03:36:30;17.10;99.90
68385;DHT22;55336;43.062;25.626;2023-07-09T03:38:55;17.10;99.90
68385;DHT22;55336;43.062;25.626;2023-07-09T03:41:21;17.10;99.90
68385;DHT22;55336;43.062;25.626;2023-07-09T03:43:47;17.10;99.90
68385;DHT22;55336;43.062;25.626;2023-07-09T03:46:15;17.10;99.90
68385;DHT22;55336;43.062;25.626;2023-07-09T03:48:41;17.10;99.90
68385;DHT22;55336;43.062;25.626;2023-07-09T03:51:07;17.10;99.90
68385;DHT22;55336;43.062;25.626;2023-07-09T03:53:32;17.10;99.90
68385;DHT22;55336;43.062;25.626;2023-07-09T03:55:58;17.20;99.90
68385;DHT22;55336;43.062;25.626;2023-07-09T03:58:26;17.20;99.90
68385;DHT22;55336;43.062;25.626;2023-07-09T04:00:52;17.30;99.90
68385;DHT22;55336;43.062;25.626;2023-07-09T04:03:19;17.30;99.90
68385;DHT22;55336;43.062;25.626;2023-07-09T04:05:46;17.40;99.90
68385;DHT22;55336;43.062;25.626;2023-07-09T04:08:12;17.40;99.90
68385;DHT22;55336;43.062;25.626;2023-07-09T04:10:38;17.50;99.90
68385;DHT22;55336;43.062;25.626;2023-07-09T04:13:03;17.50;99.90
68385;DHT22;55336;43.062;25.626;2023-07-09T04:15:29;17.50;99.90
68385;DHT22;55336;43.062;25.626;2023-07-09T04:17:55;17.50;99.90
68385;DHT22;55336;43.062;25.626;2023-07-09T04:20:21;17.60;99.90
68385;DHT22;55336;43.062;25.626;2023-07-09T04:22:47;17.60;99.90
68385;DHT22;55336;43.062;25.626;2023-07-09T04:25:13;17.70;99.90
68385;DHT22;55336;43.062;25.626;2023-07-09T04:27:39;17.80;99.90
68385;DHT22;55336;43.062;25.626;2023-07-09T04:30:12;17.80;99.90
68385;DHT22;55336;43.062;25.626;2023-07-09T04:32:38;17.90;99.90
68385;DHT22;55336;43.062;25.626;2023-07-09T04:35:04;18.00;99.90
68385;DHT22;55336;43.062;25.626;2023-07-09T04:37:33;18.00;99.90
68385;DHT22;55336;43.062;25.626;2023-07-09T04:39:59;18.00;99.90
68385;DHT22;55336;43.062;25.626;2023-07-09T04:42:24;18.00;99.90
68385;DHT22;55336;43.062;25.626;2023-07-09T04:44:50;18.00;99.90
68385;DHT22;55336;43.062;25.626;2023-07-09T04:47:16;18.10;99.90
68385;DHT22;55336;43.062;25.626;2023-07-09T04:49:41;18.20;99.90
68385;DHT22;55336;43.062;25.626;2023-07-09T04:52:08;18.20;99.90
68385;DHT22;55336;43.062;25.626;2023-07-09T04:54:39;18.20;99.90
68385;DHT22;55336;43.062;25.626;2023-07-09T04:57:05;18.30;99.90
68385;DHT22;55336;43.062;25.626;2023-07-09T04:59:31;18.40;99.90
68385;DHT22;55336;43.062;25.626;2023-07-09T05:01:57;18.50;99.90
68385;DHT22;55336;43.062;25.626;2023-07-09T05:04:23;18.40;99.90
68385;DHT22;55336;43.062;25.626;2023-07-09T05:06:48;18.60;99.90
68385;DHT22;55336;43.062;25.626;2023-07-09T05:09:14;18.80;99.90
68385;DHT22;55336;43.062;25.626;2023-07-09T05:11:40;19.00;99.90
68385;DHT22;55336;43.062;25.626;2023-07-09T05:14:05;19.00;99.90
68385;DHT22;55336;43.062;25.626;2023-07-09T05:16:31;19.10;99.90
68385;DHT22;55336;43.062;25.626;2023-07-09T05:18:57;19.10;99.90
68385;DHT22;55336;43.062;25.626;2023-07-09T05:21:23;19.20;99.90
68385;DHT22;55336;43.062;25.626;2023-07-09T05:23:48;19.20;99.90
68385;DHT22;55336;43.062;25.626;2023-07-09T05:26:14;19.30;99.90
68385;DHT22;55336;43.062;25.626;2023-07-09T05:28:40;19.50;99.90
68385;DHT22;55336;43.062;25.626;2023-07-09T05:31:05;19.30;99.90
68385;DHT22;55336;43.062;25.626;2023-07-09T05:33:32;19.60;99.90
68385;DHT22;55336;43.062;25.626;2023-07-09T05:35:57;20.10;99.90
68385;DHT22;55336;43.062;25.626;2023-07-09T05:38:23;20.70;99.90
68385;DHT22;55336;43.062;25.626;2023-07-09T05:41:02;21.00;99.90
68385;DHT22;55336;43.062;25.626;2023-07-09T05:43:29;21.60;99.90
68385;DHT22;55336;43.062;25.626;2023-07-09T05:45:54;22.10;99.90
68385;DHT22;55336;43.062;25.626;2023-07-09T05:48:20;22.30;99.90
68385;DHT22;55336;43.062;25.626;2023-07-09T05:50:47;22.60;99.90
68385;DHT22;55336;43.062;25.626;2023-07-09T05:53:13;22.80;99.90
68385;DHT22;55336;43.062;25.626;2023-07-09T05:55:39;23.00;99.90
68385;DHT22;55336;43.062;25.626;2023-07-09T05:58:05;23.20;99.90
68385;DHT22;55336;43.062;25.626;2023-07-09T06:00:30;23.30;99.90
68385;DHT22;55336;43.062;25.626;2023-07-09T06:02:56;23.50;99.90
68385;DHT22;55336;43.062;25.626;2023-07-09T06:05:23;23.70;99.90
68385;DHT22;55336;43.062;25.626;2023-07-09T06:07:48;23.70;99.90
68385;DHT22;55336;43.062;25.626;2023-07-09T06:10:14;24.00;99.90
68385;DHT22;55336;43.062;25.626;2023-07-09T06:12:40;24.50;99.90
68385;DHT22;55336;43.062;25.626;2023-07-09T06:15:06;24.70;99.90
68385;DHT22;55336;43.062;25.626;2023-07-09T06:17:32;25.00;99.90
68385;DHT22;55336;43.062;25.626;2023-07-09T06:19:59;25.10;99.90
68385;DHT22;55336;43.062;25.626;2023-07-09T06:22:25;25.30;99.90
68385;DHT22;55336;43.062;25.626;2023-07-09T06:24:50;25.70;99.90
68385;DHT22;55336;43.062;25.626;2023-07-09T06:27:16;25.80;99.90
68385;DHT22;55336;43.062;25.626;2023-07-09T06:29:42;26.00;99.90
68385;DHT22;55336;43.062;25.626;2023-07-09T06:32:07;26.10;99.90
68385;DHT22;55336;43.062;25.626;2023-07-09T06:34:33;26.50;99.90
68385;DHT22;55336;43.062;25.626;2023-07-09T06:36:59;26.80;99.90
68385;DHT22;55336;43.062;25.626;2023-07-09T06:39:25;25.50;99.90
68385;DHT22;55336;43.062;25.626;2023-07-09T06:41:51;26.30;99.90
68385;DHT22;55336;43.062;25.626;2023-07-09T06:44:17;26.70;99.90
68385;DHT22;55336;43.062;25.626;2023-07-09T06:46:43;26.70;99.90
68385;DHT22;55336;43.062;25.626;2023-07-09T06:49:10;26.40;99.90
68385;DHT22;55336;43.062;25.626;2023-07-09T06:51:36;26.20;99.90
68385;DHT22;55336;43.062;25.626;2023-07-09T06:54:01;26.30;99.90
68385;DHT22;55336;43.062;25.626;2023-07-09T06:56:27;25.90;99.90
68385;DHT22;55336;43.062;25.626;2023-07-09T06:58:53;26.10;99.90
68385;DHT22;55336;43.062;25.626;2023-07-09T07:01:19;25.90;99.90
68385;DHT22;55336;43.062;25.626;2023-07-09T07:03:45;26.00;99.90
68385;DHT22;55336;43.062;25.626;2023-07-09T07:06:10;26.00;99.90
68385;DHT22;55336;43.062;25.626;2023-07-09T07:08:37;26.10;99.90
68385;DHT22;55336;43.062;25.626;2023-07-09T07:11:04;26.40;99.90
68385;DHT22;55336;43.062;25.626;2023-07-09T07:13:36;26.80;99.90
68385;DHT22;55336;43.062;25.626;2023-07-09T07:16:04;27.20;99.90
68385;DHT22;55336;43.062;25.626;2023-07-09T07:18:30;27.80;99.90
68385;DHT22;55336;43.062;25.626;2023-07-09T07:20:56;28.20;99.90
68385;DHT22;55336;43.062;25.626;2023-07-09T07:23:22;28.20;98.20
68385;DHT22;55336;43.062;25.626;2023-07-09T07:25:49;28.50;99.90
68385;DHT22;55336;43.062;25.626;2023-07-09T07:28:14;28.50;98.80
68385;DHT22;55336;43.062;25.626;2023-07-09T07:30:40;28.30;98.70
68385;DHT22;55336;43.062;25.626;2023-07-09T07:33:06;28.40;99.90
68385;DHT22;55336;43.062;25.626;2023-07-09T07:35:32;27.90;95.60
68385;DHT22;55336;43.062;25.626;2023-07-09T07:37:58;28.10;91.50
68385;DHT22;55336;43.062;25.626;2023-07-09T07:40:23;29.20;82.90
68385;DHT22;55336;43.062;25.626;2023-07-09T07:42:49;29.20;90.40
68385;DHT22;55336;43.062;25.626;2023-07-09T07:45:16;28.50;78.60
68385;DHT22;55336;43.062;25.626;2023-07-09T07:47:42;28.90;82.50
68385;DHT22;55336;43.062;25.626;2023-07-09T07:50:09;28.80;76.80
68385;DHT22;55336;43.062;25.626;2023-07-09T07:52:35;29.20;76.30
68385;DHT22;55336;43.062;25.626;2023-07-09T07:55:07;29.40;75.50
68385;DHT22;55336;43.062;25.626;2023-07-09T07:57:33;29.30;73.30
68385;DHT22;55336;43.062;25.626;2023-07-09T07:59:59;29.10;74.80
68385;DHT22;55336;43.062;25.626;2023-07-09T08:02:25;29.40;67.60
68385;DHT22;55336;43.062;25.626;2023-07-09T08:04:51;28.80;68.50
68385;DHT22;55336;43.062;25.626;2023-07-09T08:07:18;28.70;70.80
68385;DHT22;55336;43.062;25.626;2023-07-09T08:09:45;29.10;72.20
68385;DHT22;55336;43.062;25.626;2023-07-09T08:12:14;29.10;65.50
68385;DHT22;55336;43.062;25.626;2023-07-09T08:14:42;29.30;66.30
68385;DHT22;55336;43.062;25.626;2023-07-09T08:17:10;28.90;58.90
68385;DHT22;55336;43.062;25.626;2023-07-09T08:19:47;28.20;68.50
68385;DHT22;55336;43.062;25.626;2023-07-09T08:22:14;29.10;58.60
68385;DHT22;55336;43.062;25.626;2023-07-09T08:24:41;29.70;53.00
68385;DHT22;55336;43.062;25.626;2023-07-09T08:27:07;30.00;57.10
68385;DHT22;55336;43.062;25.626;2023-07-09T08:29:34;29.20;54.90
68385;DHT22;55336;43.062;25.626;2023-07-09T08:32:00;29.20;57.20
68385;DHT22;55336;43.062;25.626;2023-07-09T08:34:26;29.40;56.50
68385;DHT22;55336;43.062;25.626;2023-07-09T08:36:52;29.60;52.40
68385;DHT22;55336;43.062;25.626;2023-07-09T08:39:19;30.10;52.00
68385;DHT22;55336;43.062;25.626;2023-07-09T08:41:59;30.40;52.70
68385;DHT22;55336;43.062;25.626;2023-07-09T08:44:33;30.30;51.30
68385;DHT22;55336;43.062;25.626;2023-07-09T08:47:27;29.60;50.80
68385;DHT22;55336;43.062;25.626;2023-07-09T08:50:05;30.20;49.90
68385;DHT22;55336;43.062;25.626;2023-07-09T08:52:38;30.30;52.10
68385;DHT22;55336;43.062;25.626;2023-07-09T08:55:27;30.50;51.70
68385;DHT22;55336;43.062;25.626;2023-07-09T08:58:05;31.10;50.20
68385;DHT22;55336;43.062;25.626;2023-07-09T09:00:53;31.10;52.00
68385;DHT22;55336;43.062;25.626;2023-07-09T09:03:44;31.30;51.30
68385;DHT22;55336;43.062;25.626;2023-07-09T09:06:17;31.20;47.60
68385;DHT22;55336;43.062;25.626;2023-07-09T09:13:54;31.50;49.80
68385;DHT22;55336;43.062;25.626;2023-07-09T09:16:40;31.00;54.10
68385;DHT22;55336;43.062;25.626;2023-07-09T09:19:29;30.80;49.80
68385;DHT22;55336;43.062;25.626;2023-07-09T09:22:04;30.00;51.80
68385;DHT22;55336;43.062;25.626;2023-07-09T09:27:00;30.60;50.10
68385;DHT22;55336;43.062;25.626;2023-07-09T09:29:27;30.50;53.30
68385;DHT22;55336;43.062;25.626;2023-07-09T09:31:57;30.00;53.10
68385;DHT22;55336;43.062;25.626;2023-07-09T09:34:29;29.70;55.50
68385;DHT22;55336;43.062;25.626;2023-07-09T09:36:56;30.00;54.90
68385;DHT22;55336;43.062;25.626;2023-07-09T09:39:24;29.80;56.30
68385;DHT22;55336;43.062;25.626;2023-07-09T09:41:54;30.10;55.20
68385;DHT22;55336;43.062;25.626;2023-07-09T09:44:24;30.10;54.20
68385;DHT22;55336;43.062;25.626;2023-07-09T09:46:51;30.70;49.30
68385;DHT22;55336;43.062;25.626;2023-07-09T09:49:17;31.80;50.00
68385;DHT22;55336;43.062;25.626;2023-07-09T09:51:45;31.80;49.30
68385;DHT22;55336;43.062;25.626;2023-07-09T09:54:17;31.30;49.30
68385;DHT22;55336;43.062;25.626;2023-07-09T09:56:44;31.70;49.50
68385;DHT22;55336;43.062;25.626;2023-07-09T09:59:20;31.30;49.30
68385;DHT22;55336;43.062;25.626;2023-07-09T10:01:46;31.50;53.10
68385;DHT22;55336;43.062;25.626;2023-07-09T10:04:18;30.60;51.60
68385;DHT22;55336;43.062;25.626;2023-07-09T10:06:52;30.70;52.00
68385;DHT22;55336;43.062;25.626;2023-07-09T10:12:11;31.20;51.40
68385;DHT22;55336;43.062;25.626;2023-07-09T10:17:26;31.80;49.90
68385;DHT22;55336;43.062;25.626;2023-07-09T10:20:23;32.10;51.10
68385;DHT22;55336;43.062;25.626;2023-07-09T10:22:53;32.00;48.40
68385;DHT22;55336;43.062;25.626;2023-07-09T10:25:48;31.60;50.40
68385;DHT22;55336;43.062;25.626;2023-07-09T10:33:53;31.50;51.50
68385;DHT22;55336;43.062;25.626;2023-07-09T10:36:48;31.50;48.40
68385;DHT22;55336;43.062;25.626;2023-07-09T10:39:22;30.90;47.70
68385;DHT22;55336;43.062;25.626;2023-07-09T10:41:50;31.60;48.50
68385;DHT22;55336;43.062;25.626;2023-07-09T10:44:24;31.90;46.50
68385;DHT22;55336;43.062;25.626;2023-07-09T10:46:57;31.50;49.80
68385;DHT22;55336;43.062;25.626;2023-07-09T10:49:34;29.90;49.50
68385;DHT22;55336;43.062;25.626;2023-07-09T10:52:20;30.50;48.70
68385;DHT22;55336;43.062;25.626;2023-07-09T10:55:02;31.90;46.20
68385;DHT22;55336;43.062;25.626;2023-07-09T11:00:01;32.10;46.20
68385;DHT22;55336;43.062;25.626;2023-07-09T11:02:30;32.20;47.50
68385;DHT22;55336;43.062;25.626;2023-07-09T11:05:03;31.80;43.70
68385;DHT22;55336;43.062;25.626;2023-07-09T11:07:58;31.90;44.80
68385;DHT22;55336;43.062;25.626;2023-07-09T11:10:31;31.60;46.50
68385;DHT22;55336;43.062;25.626;2023-07-09T11:13:05;32.60;44.60
68385;DHT22;55336;43.062;25.626;2023-07-09T11:15:39;32.30;47.30
68385;DHT22;55336;43.062;25.626;2023-07-09T11:18:10;32.10;48.00
68385;DHT22;55336;43.062;25.626;2023-07-09T11:20:43;31.40;47.70
68385;DHT22;55336;43.062;25.626;2023-07-09T11:23:23;32.00;46.10
68385;DHT22;55336;43.062;25.626;2023-07-09T11:28:40;32.90;42.80
68385;DHT22;55336;43.062;25.626;2023-07-09T11:31:18;33.20;39.20
68385;DHT22;55336;43.062;25.626;2023-07-09T11:36:32;32.90;40.30
68385;DHT22;55336;43.062;25.626;2023-07-09T11:38:58;33.20;39.20
68385;DHT22;55336;43.062;25.626;2023-07-09T11:44:05;32.30;40.80
68385;DHT22;55336;43.062;25.626;2023-07-09T11:46:40;32.90;38.20
68385;DHT22;55336;43.062;25.626;2023-07-09T11:49:09;33.20;40.50
68385;DHT22;55336;43.062;25.626;2023-07-09T11:51:45;31.60;44.10
68385;DHT22;55336;43.062;25.626;2023-07-09T11:54:12;31.00;44.30
68385;DHT22;55336;43.062;25.626;2023-07-09T11:56:41;31.30;44.10
68385;DHT22;55336;43.062;25.626;2023-07-09T11:59:10;31.70;41.40
68385;DHT22;55336;43.062;25.626;2023-07-09T12:01:42;31.80;41.10
68385;DHT22;55336;43.062;25.626;2023-07-09T12:04:16;31.60;41.70
68385;DHT22;55336;43.062;25.626;2023-07-09T12:06:42;32.20;41.30
68385;DHT22;55336;43.062;25.626;2023-07-09T12:09:33;32.20;40.20
68385;DHT22;55336;43.062;25.626;2023-07-09T12:12:03;33.00;39.80
68385;DHT22;55336;43.062;25.626;2023-07-09T12:14:28;33.30;38.60
68385;DHT22;55336;43.062;25.626;2023-07-09T12:16:54;33.90;35.50
68385;DHT22;55336;43.062;25.626;2023-07-09T12:19:23;34.00;38.60
68385;DHT22;55336;43.062;25.626;2023-07-09T12:21:52;33.90;38.80
68385;DHT22;55336;43.062;25.626;2023-07-09T12:24:28;33.60;37.10
68385;DHT22;55336;43.062;25.626;2023-07-09T12:27:03;32.80;39.00
68385;DHT22;55336;43.062;25.626;2023-07-09T12:29:33;33.10;38.30
68385;DHT22;55336;43.062;25.626;2023-07-09T12:32:06;32.90;38.60
68385;DHT22;55336;43.062;25.626;2023-07-09T12:34:35;33.70;37.90
68385;DHT22;55336;43.062;25.626;2023-07-09T12:37:01;33.70;37.40
68385;DHT22;55336;43.062;25.626;2023-07-09T12:39:29;33.90;37.60
68385;DHT22;55336;43.062;25.626;2023-07-09T12:41:59;34.20;36.60
68385;DHT22;55336;43.062;25.626;2023-07-09T12:44:26;33.30;39.60
68385;DHT22;55336;43.062;25.626;2023-07-09T12:46:53;32.10;40.60
68385;DHT22;55336;43.062;25.626;2023-07-09T12:49:27;31.50;42.20
68385;DHT22;55336;43.062;25.626;2023-07-09T12:52:00;32.20;42.30
68385;DHT22;55336;43.062;25.626;2023-07-09T12:54:29;32.00;40.50
68385;DHT22;55336;43.062;25.626;2023-07-09T12:56:56;32.30;43.00
68385;DHT22;55336;43.062;25.626;2023-07-09T12:59:26;33.10;39.80
68385;DHT22;55336;43.062;25.626;2023-07-09T13:04:41;32.50;41.30
68385;DHT22;55336;43.062;25.626;2023-07-09T13:07:29;32.00;42.30
68385;DHT22;55336;43.062;25.626;2023-07-09T13:09:56;32.50;40.30
68385;DHT22;55336;43.062;25.626;2023-07-09T13:12:32;33.20;40.00
68385;DHT22;55336;43.062;25.626;2023-07-09T13:14:59;33.80;37.60
68385;DHT22;55336;43.062;25.626;2023-07-09T13:17:29;32.90;41.20
68385;DHT22;55336;43.062;25.626;2023-07-09T13:19:55;32.10;42.00
68385;DHT22;55336;43.062;25.626;2023-07-09T13:22:22;32.60;41.60
68385;DHT22;55336;43.062;25.626;2023-07-09T13:24:49;33.10;41.00
68385;DHT22;55336;43.062;25.626;2023-07-09T13:27:16;33.10;40.90
68385;DHT22;55336;43.062;25.626;2023-07-09T13:29:42;33.00;40.70
68385;DHT22;55336;43.062;25.626;2023-07-09T13:32:12;33.60;42.00
68385;DHT22;55336;43.062;25.626;2023-07-09T13:34:39;34.00;39.70
68385;DHT22;55336;43.062;25.626;2023-07-09T13:37:11;33.80;39.90
68385;DHT22;55336;43.062;25.626;2023-07-09T13:39:37;33.00;39.50
68385;DHT22;55336;43.062;25.626;2023-07-09T13:42:09;32.50;38.10
68385;DHT22;55336;43.062;25.626;2023-07-09T13:44:38;32.50;40.90
68385;DHT22;55336;43.062;25.626;2023-07-09T13:47:04;32.80;39.30
68385;DHT22;55336;43.062;25.626;2023-07-09T13:49:31;31.80;41.20
68385;DHT22;55336;43.062;25.626;2023-07-09T13:51:58;31.80;40.20
68385;DHT22;55336;43.062;25.626;2023-07-09T13:54:28;32.20;39.90
68385;DHT22;55336;43.062;25.626;2023-07-09T13:57:01;32.50;40.70
68385;DHT22;55336;43.062;25.626;2023-07-09T13:59:29;32.50;42.30
68385;DHT22;55336;43.062;25.626;2023-07-09T14:01:56;33.20;36.30
68385;DHT22;55336;43.062;25.626;2023-07-09T14:04:24;33.40;38.20
68385;DHT22;55336;43.062;25.626;2023-07-09T14:06:51;33.60;39.10
68385;DHT22;55336;43.062;25.626;2023-07-09T14:09:17;33.70;35.40
68385;DHT22;55336;43.062;25.626;2023-07-09T14:11:50;34.00;35.10
68385;DHT22;55336;43.062;25.626;2023-07-09T14:14:24;33.60;37.00
68385;DHT22;55336;43.062;25.626;2023-07-09T14:16:51;34.20;36.30
68385;DHT22;55336;43.062;25.626;2023-07-09T14:19:19;33.70;41.20
68385;DHT22;55336;43.062;25.626;2023-07-09T14:21:46;33.50;36.50
68385;DHT22;55336;43.062;25.626;2023-07-09T14:24:20;33.60;39.50
68385;DHT22;55336;43.062;25.626;2023-07-09T14:26:50;33.70;36.50
68385;DHT22;55336;43.062;25.626;2023-07-09T14:29:17;33.50;38.30
68385;DHT22;55336;43.062;25.626;2023-07-09T14:31:45;33.20;37.80
68385;DHT22;55336;43.062;25.626;2023-07-09T14:34:26;33.20;39.00
68385;DHT22;55336;43.062;25.626;2023-07-09T14:36:55;33.60;38.20
68385;DHT22;55336;43.062;25.626;2023-07-09T14:39:21;34.00;38.30
68385;DHT22;55336;43.062;25.626;2023-07-09T14:41:47;34.40;40.10
68385;DHT22;55336;43.062;25.626;2023-07-09T14:46:44;33.40;37.70
68385;DHT22;55336;43.062;25.626;2023-07-09T14:49:11;33.30;38.90
68385;DHT22;55336;43.062;25.626;2023-07-09T14:51:37;33.50;39.10
68385;DHT22;55336;43.062;25.626;2023-07-09T14:54:10;33.20;40.10
68385;DHT22;55336;43.062;25.626;2023-07-09T14:56:42;33.20;43.00
68385;DHT22;55336;43.062;25.626;2023-07-09T14:59:11;33.70;37.80
68385;DHT22;55336;43.062;25.626;2023-07-09T15:01:39;33.20;39.30
68385;DHT22;55336;43.062;25.626;2023-07-09T15:06:48;33.50;38.40
68385;DHT22;55336;43.062;25.626;2023-07-09T15:09:14;33.50;38.20
68385;DHT22;55336;43.062;25.626;2023-07-09T15:11:45;33.70;39.90
68385;DHT22;55336;43.062;25.626;2023-07-09T15:14:11;33.70;37.30
68385;DHT22;55336;43.062;25.626;2023-07-09T15:16:37;33.00;39.00
68385;DHT22;55336;43.062;25.626;2023-07-09T15:19:16;33.30;37.90
68385;DHT22;55336;43.062;25.626;2023-07-09T15:21:42;33.00;38.40
68385;DHT22;55336;43.062;25.626;2023-07-09T15:26:50;33.70;36.60
68385;DHT22;55336;43.062;25.626;2023-07-09T15:29:19;33.20;39.30
68385;DHT22;55336;43.062;25.626;2023-07-09T15:31:45;33.10;39.80
68385;DHT22;55336;43.062;25.626;2023-07-09T15:34:11;32.70;40.50
68385;DHT22;55336;43.062;25.626;2023-07-09T15:36:40;33.00;40.10
68385;DHT22;55336;43.062;25.626;2023-07-09T15:39:10;33.00;40.40
68385;DHT22;55336;43.062;25.626;2023-07-09T15:41:37;33.00;42.00
68385;DHT22;55336;43.062;25.626;2023-07-09T15:44:04;33.00;41.20
68385;DHT22;55336;43.062;25.626;2023-07-09T15:46:30;32.80;45.40
68385;DHT22;55336;43.062;25.626;2023-07-09T15:48:56;32.90;43.10
68385;DHT22;55336;43.062;25.626;2023-07-09T15:51:22;32.60;41.60
68385;DHT22;55336;43.062;25.626;2023-07-09T15:53:49;32.60;41.70
68385;DHT22;55336;43.062;25.626;2023-07-09T15:56:24;33.00;41.60
68385;DHT22;55336;43.062;25.626;2023-07-09T15:58:52;32.90;39.80
68385;DHT22;55336;43.062;25.626;2023-07-09T16:01:19;32.10;49.50
68385;DHT22;55336;43.062;25.626;2023-07-09T16:03:48;32.40;47.00
68385;DHT22;55336;43.062;25.626;2023-07-09T16:06:15;32.60;49.10
68385;DHT22;55336;43.062;25.626;2023-07-09T16:08:41;32.50;46.60